createdAt,value
2019-03-15T00:01:03.045Z,7.73
2019-03-15T00:03:34.420Z,7.68
2019-03-15T00:06:04.721Z,7.68
2019-03-15T00:08:34.962Z,7.71
2019-03-15T00:11:05.795Z,7.65
2019-03-15T00:13:36.497Z,7.62
2019-03-15T00:16:06.773Z,7.64
2019-03-15T00:18:37.340Z,7.65
2019-03-15T00:21:07.986Z,7.58
2019-03-15T00:23:38.171Z,7.53
2019-03-15T00:26:08.479Z,7.58
2019-03-15T00:28:38.792Z,7.61
2019-03-15T00:31:09.112Z,7.58
2019-03-15T00:33:40.983Z,7.52
2019-03-15T00:36:11.675Z,7.49
2019-03-15T00:38:42.616Z,7.54
2019-03-15T00:41:13.163Z,7.58
2019-03-15T00:43:43.779Z,7.58
2019-03-15T00:46:14.003Z,7.70
2019-03-15T00:48:44.251Z,7.74
2019-03-15T00:51:14.919Z,7.77
2019-03-15T00:53:45.119Z,7.81
2019-03-15T00:56:15.426Z,7.92
2019-03-15T00:58:46.392Z,7.99
2019-03-15T01:01:17.280Z,8.09
2019-03-15T01:03:47.807Z,7.95
2019-03-15T01:06:18.612Z,7.83
2019-03-15T01:08:48.782Z,7.89
2019-03-15T01:11:19.059Z,7.87
2019-03-15T01:13:49.271Z,7.79
2019-03-15T01:16:19.468Z,7.68
2019-03-15T01:18:50.375Z,7.58
2019-03-15T01:21:20.636Z,7.54
2019-03-15T01:23:50.871Z,7.64
2019-03-15T01:26:21.347Z,7.59
2019-03-15T01:28:51.627Z,7.57
2019-03-15T01:31:21.832Z,7.56
2019-03-15T01:33:52.063Z,7.48
2019-03-15T01:36:22.732Z,7.44
2019-03-15T01:38:53.582Z,7.44
2019-03-15T01:41:24.579Z,7.37
2019-03-15T01:43:55.169Z,7.37
2019-03-15T01:46:25.428Z,7.34
2019-03-15T01:48:55.683Z,7.29
2019-03-15T01:51:25.956Z,7.20
2019-03-15T01:53:56.560Z,7.13
2019-03-15T01:56:26.818Z,7.13
2019-03-15T01:58:57.864Z,7.09
2019-03-15T02:01:28.717Z,7.04
2019-03-15T02:03:59.846Z,6.97
2019-03-15T02:06:30.047Z,6.92
2019-03-15T02:09:00.657Z,6.93
2019-03-15T02:11:31.188Z,7.01
2019-03-15T02:14:02.875Z,7.07
2019-03-15T02:16:34.448Z,7.15
2019-03-15T02:19:05.136Z,7.20
2019-03-15T02:21:35.733Z,7.20
2019-03-15T02:24:05.920Z,7.26
2019-03-15T02:26:36.481Z,7.26
2019-03-15T02:29:06.754Z,7.30
2019-03-15T02:31:38.124Z,7.28
2019-03-15T02:34:08.381Z,7.50
2019-03-15T02:36:39.971Z,7.58
2019-03-15T02:39:10.804Z,7.62
2019-03-15T02:41:41.085Z,7.72
2019-03-15T02:44:12.345Z,7.74
2019-03-15T02:46:43.317Z,7.87
2019-03-15T02:49:14.967Z,7.93
2019-03-15T02:51:46.249Z,7.90
2019-03-15T02:54:16.481Z,7.94
2019-03-15T02:56:46.724Z,7.97
2019-03-15T02:59:17.301Z,7.96
2019-03-15T03:01:48.135Z,8.05
2019-03-15T03:04:18.556Z,8.12
2019-03-15T03:06:49.232Z,8.12
2019-03-15T03:09:19.441Z,8.13
2019-03-15T03:11:50.462Z,8.05
2019-03-15T03:14:20.869Z,8.10
2019-03-15T03:19:37.500Z,8.08
2019-03-15T03:22:09.049Z,8.07
2019-03-15T03:24:39.688Z,8.07
2019-03-15T03:27:09.940Z,8.15
2019-03-15T03:29:40.249Z,8.13
2019-03-15T03:32:11.167Z,8.14
2019-03-15T03:34:42.643Z,8.14
2019-03-15T03:37:13.564Z,8.14
2019-03-15T03:39:44.757Z,8.24
2019-03-15T03:42:15.092Z,8.23
2019-03-15T03:44:45.663Z,8.20
2019-03-15T03:47:16.014Z,8.18
2019-03-15T03:49:46.927Z,8.21
2019-03-15T03:52:17.175Z,8.19
2019-03-15T03:54:47.790Z,8.19
2019-03-15T03:57:18.028Z,8.18
2019-03-15T03:59:48.621Z,8.19
2019-03-15T04:02:19.583Z,8.17
2019-03-15T04:04:50.106Z,8.21
2019-03-15T04:07:20.398Z,8.17
2019-03-15T04:09:50.650Z,8.19
2019-03-15T04:12:21.346Z,8.17
2019-03-15T04:14:51.671Z,8.19
2019-03-15T04:17:23.370Z,8.27
2019-03-15T04:19:54.661Z,8.37
2019-03-15T04:22:24.865Z,8.41
2019-03-15T04:24:55.052Z,8.45
2019-03-15T04:27:25.544Z,8.44
2019-03-15T04:29:56.151Z,8.41
2019-03-15T04:32:26.370Z,8.37
2019-03-15T04:34:56.646Z,8.29
2019-03-15T04:37:26.919Z,8.20
2019-03-15T04:39:57.823Z,8.12
2019-03-15T04:42:28.419Z,8.03
2019-03-15T04:44:58.982Z,8.00
2019-03-15T04:47:29.243Z,7.96
2019-03-15T04:50:00.435Z,7.96
2019-03-15T04:52:31.906Z,7.92
2019-03-15T04:55:02.108Z,7.92
2019-03-15T04:57:32.379Z,7.89
2019-03-15T05:00:02.969Z,7.85
2019-03-15T05:02:33.349Z,7.80
2019-03-15T05:05:03.579Z,7.77
2019-03-15T05:07:34.062Z,7.79
2019-03-15T05:10:05.122Z,7.78
2019-03-15T05:12:35.730Z,7.76
2019-03-15T05:15:06.187Z,7.74
2019-03-15T05:17:36.899Z,7.74
2019-03-15T05:20:08.198Z,7.72
2019-03-15T05:22:39.431Z,7.71
2019-03-15T05:25:10.311Z,7.69
2019-03-15T05:27:40.602Z,7.66
2019-03-15T05:30:11.756Z,7.69
2019-03-15T05:32:41.943Z,7.68
2019-03-15T05:35:12.165Z,7.68
2019-03-15T05:37:42.419Z,7.68
2019-03-15T05:40:13.414Z,7.64
2019-03-15T05:42:44.352Z,7.67
2019-03-15T05:45:14.675Z,7.67
2019-03-15T05:47:44.923Z,7.69
2019-03-15T05:50:15.561Z,7.69
2019-03-15T05:52:46.150Z,7.67
2019-03-15T05:55:16.783Z,7.68
2019-03-15T05:57:47.824Z,7.71
2019-03-15T06:00:18.350Z,7.69
2019-03-15T06:02:49.751Z,7.68
2019-03-15T06:05:20.131Z,7.69
2019-03-15T06:07:50.998Z,7.70
2019-03-15T06:10:21.305Z,7.69
2019-03-15T06:12:51.560Z,7.68
2019-03-15T06:15:21.852Z,7.68
2019-03-15T06:17:52.107Z,7.68
2019-03-15T06:20:22.707Z,7.72
2019-03-15T06:22:53.872Z,7.73
2019-03-15T06:25:24.493Z,7.77
2019-03-15T06:27:54.723Z,7.75
2019-03-15T06:30:25.027Z,7.73
2019-03-15T06:32:55.308Z,7.72
2019-03-15T06:35:25.819Z,7.72
2019-03-15T06:37:56.589Z,7.72
2019-03-15T06:40:27.451Z,7.72
2019-03-15T06:42:57.859Z,7.72
2019-03-15T06:45:28.159Z,7.73
2019-03-15T06:47:58.448Z,7.73
2019-03-15T06:50:29.173Z,7.78
2019-03-15T06:52:59.530Z,7.78
2019-03-15T06:55:29.832Z,7.82
2019-03-15T06:58:00.419Z,7.85
2019-03-15T07:00:31.066Z,7.87
2019-03-15T07:03:01.458Z,7.87
2019-03-15T07:05:31.639Z,7.85
2019-03-15T07:08:02.244Z,7.87
2019-03-15T07:10:33.046Z,7.90
2019-03-15T07:13:03.379Z,7.91
2019-03-15T07:15:34.101Z,7.95
2019-03-15T07:18:04.713Z,7.97
2019-03-15T07:20:35.299Z,8.15
2019-03-15T07:23:05.542Z,8.15
2019-03-15T07:25:35.802Z,8.15
2019-03-15T07:28:06.081Z,8.29
2019-03-15T07:30:36.348Z,8.45
2019-03-15T07:33:06.623Z,8.58
2019-03-15T07:35:36.884Z,8.70
2019-03-15T07:38:07.195Z,8.85
2019-03-15T07:40:37.794Z,8.91
2019-03-15T07:43:08.123Z,8.97
2019-03-15T07:45:38.751Z,9.04
2019-03-15T07:48:21.895Z,9.11
2019-03-15T07:50:41.557Z,9.20
2019-03-15T07:53:12.619Z,9.30
2019-03-15T07:55:42.848Z,9.35
2019-03-15T07:58:13.695Z,9.52
2019-03-15T08:00:44.181Z,9.70
2019-03-15T08:03:14.727Z,9.85
2019-03-15T08:05:45.009Z,9.94
2019-03-15T08:08:15.285Z,9.94
2019-03-15T08:10:45.514Z,10.01
2019-03-15T08:13:16.116Z,10.08
2019-03-15T08:15:46.364Z,10.14
2019-03-15T08:18:17.524Z,10.17
2019-03-15T08:20:48.007Z,10.21
2019-03-15T08:23:18.216Z,10.26
2019-03-15T08:25:50.479Z,10.28
2019-03-15T08:28:20.714Z,10.29
2019-03-15T08:30:50.967Z,10.32
2019-03-15T08:33:21.295Z,10.37
2019-03-15T08:35:51.655Z,10.44
2019-03-15T08:38:22.124Z,10.54
2019-03-15T08:40:53.072Z,10.62
2019-03-15T08:43:23.382Z,10.70
2019-03-15T08:45:53.722Z,10.76
2019-03-15T08:48:24.020Z,10.77
2019-03-15T08:50:54.332Z,10.81
2019-03-15T08:53:24.599Z,10.78
2019-03-15T08:55:54.889Z,10.75
2019-03-15T08:58:27.256Z,10.76
2019-03-15T09:00:58.391Z,10.78
2019-03-15T09:03:28.954Z,10.79
2019-03-15T09:05:59.596Z,10.83
2019-03-15T09:08:30.227Z,10.83
2019-03-15T09:11:00.692Z,10.86
2019-03-15T09:13:31.014Z,10.87
2019-03-15T09:16:01.265Z,10.89
2019-03-15T09:18:31.856Z,10.95
2019-03-15T09:21:02.459Z,11.00
2019-03-15T09:23:34.728Z,11.04
2019-03-15T09:26:05.522Z,11.09
2019-03-15T09:28:36.205Z,11.11
2019-03-15T09:31:07.684Z,11.14
2019-03-15T09:33:38.388Z,11.15
2019-03-15T09:36:09.261Z,11.19
2019-03-15T09:38:40.472Z,11.23
2019-03-15T09:41:11.099Z,11.22
2019-03-15T09:43:45.096Z,11.26
2019-03-15T09:46:13.579Z,11.30
2019-03-15T09:48:44.226Z,11.32
2019-03-15T09:51:14.547Z,11.32
2019-03-15T09:53:45.379Z,11.31
2019-03-15T09:56:15.929Z,11.33
2019-03-15T09:58:46.680Z,11.37
2019-03-15T10:01:33.695Z,11.39
2019-03-15T10:03:49.459Z,11.38
2019-03-15T10:06:20.755Z,11.49
2019-03-15T10:08:51.074Z,11.52
2019-03-15T10:11:21.660Z,11.56
2019-03-15T10:13:53.617Z,11.57
2019-03-15T10:16:24.360Z,11.55
2019-03-15T10:18:54.879Z,11.55
2019-03-15T10:21:25.420Z,11.53
2019-03-15T10:23:56.066Z,11.54
2019-03-15T10:26:26.724Z,11.61
2019-03-15T10:28:57.004Z,11.70
2019-03-15T10:31:28.120Z,11.77
2019-03-15T10:33:58.495Z,11.80
2019-03-15T10:36:29.138Z,11.74
2019-03-15T10:38:59.838Z,11.78
2019-03-15T10:41:30.574Z,11.89
2019-03-15T10:44:04.099Z,11.99
2019-03-15T10:46:34.288Z,12.06
2019-03-15T10:49:04.566Z,12.17
2019-03-15T10:51:34.768Z,12.19
2019-03-15T10:54:05.059Z,12.26
2019-03-15T10:56:35.668Z,12.28
2019-03-15T10:59:06.492Z,12.37
2019-03-15T11:01:37.143Z,12.44
2019-03-15T11:04:07.898Z,12.45
2019-03-15T11:06:38.232Z,12.39
2019-03-15T11:09:08.649Z,12.33
2019-03-15T11:11:38.937Z,12.15
2019-03-15T11:14:09.195Z,12.15
2019-03-15T11:16:39.620Z,12.10
2019-03-15T11:19:10.467Z,12.05
2019-03-15T11:21:41.435Z,12.01
2019-03-15T11:24:11.720Z,11.94
2019-03-15T11:26:42.373Z,11.90
2019-03-15T11:29:12.707Z,11.90
2019-03-15T11:31:44.665Z,11.84
2019-03-15T11:34:15.816Z,11.81
2019-03-15T11:36:57.836Z,11.86
2019-03-15T11:39:18.207Z,11.89
2019-03-15T11:41:49.837Z,11.91
2019-03-15T11:44:20.200Z,11.93
2019-03-15T11:46:50.452Z,11.84
2019-03-15T11:49:20.811Z,11.84
2019-03-15T11:51:51.104Z,11.80
2019-03-15T11:54:21.383Z,11.80
2019-03-15T11:56:51.994Z,11.82
2019-03-15T11:59:22.524Z,11.79
2019-03-15T12:02:03.915Z,11.80
2019-03-15T12:04:26.467Z,11.84
2019-03-15T12:06:56.713Z,11.89
2019-03-15T12:09:27.001Z,11.92
2019-03-15T12:11:57.832Z,12.01
2019-03-15T12:14:40.523Z,12.05
2019-03-15T12:17:01.942Z,12.08
2019-03-15T12:19:32.207Z,12.14
2019-03-15T12:22:06.491Z,12.22
2019-03-15T12:24:34.463Z,12.32
2019-03-15T12:27:05.763Z,12.52
2019-03-15T12:29:36.417Z,12.59
2019-03-15T12:32:07.687Z,12.52
2019-03-15T12:34:38.304Z,12.49
2019-03-15T12:37:08.688Z,12.52
2019-03-15T12:39:40.261Z,12.53
2019-03-15T12:42:10.836Z,12.58
2019-03-15T12:44:41.165Z,12.70
2019-03-15T12:47:11.416Z,12.81
2019-03-15T12:49:41.714Z,12.94
2019-03-15T12:52:13.272Z,12.79
2019-03-15T12:54:43.576Z,12.89
2019-03-15T12:57:13.863Z,12.82
2019-03-15T12:59:44.457Z,12.77
2019-03-15T13:02:15.273Z,12.68
2019-03-15T13:04:45.468Z,12.76
2019-03-15T13:07:15.760Z,12.75
2019-03-15T13:09:46.053Z,12.74
2019-03-15T13:12:16.344Z,12.67
2019-03-15T13:14:46.541Z,12.53
2019-03-15T13:17:16.983Z,12.54
2019-03-15T13:19:55.200Z,12.49
2019-03-15T13:22:20.124Z,12.40
2019-03-15T13:24:50.308Z,12.34
2019-03-15T13:27:20.557Z,12.27
2019-03-15T13:29:51.036Z,12.24
2019-03-15T13:32:21.393Z,12.24
2019-03-15T13:34:51.713Z,12.19
2019-03-15T13:37:21.981Z,12.25
2019-03-15T13:39:52.612Z,12.22
2019-03-15T13:42:24.017Z,12.19
2019-03-15T13:44:54.251Z,12.17
2019-03-15T13:47:24.895Z,12.19
2019-03-15T13:49:55.088Z,12.18
2019-03-15T13:52:25.342Z,12.30
2019-03-15T13:54:55.762Z,12.25
2019-03-15T13:57:26.040Z,12.30
2019-03-15T13:59:56.853Z,12.30
2019-03-15T14:02:28.090Z,12.41
2019-03-15T14:04:58.395Z,12.41
2019-03-15T14:07:28.645Z,12.47
2019-03-15T14:09:58.939Z,12.60
2019-03-15T14:12:29.315Z,12.57
2019-03-15T14:14:59.908Z,12.60
2019-03-15T14:17:30.270Z,12.67
2019-03-15T14:20:00.768Z,12.72
2019-03-15T14:22:30.980Z,12.75
2019-03-15T14:25:02.032Z,12.73
2019-03-15T14:27:37.602Z,12.75
2019-03-15T14:30:04.957Z,12.80
2019-03-15T14:32:35.383Z,12.89
2019-03-15T14:35:05.672Z,12.96
2019-03-15T14:37:37.718Z,13.03
2019-03-15T14:40:08.543Z,13.00
2019-03-15T14:42:38.911Z,12.96
2019-03-15T14:45:09.496Z,13.05
2019-03-15T14:47:39.824Z,12.98
2019-03-15T14:50:10.670Z,12.93
2019-03-15T14:52:40.911Z,13.03
2019-03-15T14:55:11.800Z,12.98
2019-03-15T14:57:52.054Z,12.97
2019-03-15T15:00:14.380Z,12.92
2019-03-15T15:02:45.306Z,12.88
2019-03-15T15:05:16.448Z,12.79
2019-03-15T15:07:46.784Z,12.79
2019-03-15T15:10:17.276Z,12.71
2019-03-15T15:12:47.537Z,12.67
2019-03-15T15:15:17.781Z,12.54
2019-03-15T15:17:48.376Z,12.54
2019-03-15T15:20:18.634Z,12.46
2019-03-15T15:22:49.256Z,12.47
2019-03-15T15:25:19.763Z,12.43
2019-03-15T15:28:03.533Z,12.41
2019-03-15T15:30:22.284Z,12.30
2019-03-15T15:32:52.572Z,12.22
2019-03-15T15:35:22.848Z,12.25
2019-03-15T15:37:53.264Z,12.19
2019-03-15T15:40:23.519Z,12.20
2019-03-15T15:42:54.504Z,12.22
2019-03-15T15:45:25.839Z,12.22
2019-03-15T15:47:56.356Z,12.24
2019-03-15T15:50:26.638Z,12.31
2019-03-15T15:52:57.337Z,12.34
2019-03-15T15:55:27.918Z,12.40
2019-03-15T15:57:58.173Z,12.62
2019-03-15T16:00:28.432Z,12.80
2019-03-15T16:02:59.347Z,12.87
2019-03-15T16:05:29.599Z,12.87
2019-03-15T16:08:00.506Z,12.99
2019-03-15T16:10:31.792Z,12.94
2019-03-15T16:13:02.874Z,12.91
2019-03-15T16:15:33.971Z,12.91
2019-03-15T16:18:04.265Z,12.87
2019-03-15T16:20:35.301Z,12.91
2019-03-15T16:23:05.538Z,12.95
2019-03-15T16:25:35.817Z,13.04
2019-03-15T16:28:06.693Z,13.16
2019-03-15T16:30:36.955Z,13.22
2019-03-15T16:33:07.846Z,13.34
2019-03-15T16:35:38.418Z,13.28
2019-03-15T16:38:08.714Z,13.26
2019-03-15T16:40:38.962Z,13.19
2019-03-15T16:43:09.185Z,13.05
2019-03-15T16:45:39.781Z,12.92
2019-03-15T16:48:10.112Z,12.84
2019-03-15T16:50:40.708Z,12.73
2019-03-15T16:53:11.468Z,12.63
2019-03-15T16:55:41.751Z,12.54
2019-03-15T16:58:11.948Z,12.49
2019-03-15T17:00:42.172Z,12.45
2019-03-15T17:03:12.460Z,12.39
2019-03-15T17:05:43.066Z,12.29
2019-03-15T17:08:13.651Z,12.18
2019-03-15T17:10:43.880Z,12.08
2019-03-15T17:13:14.196Z,11.97
2019-03-15T17:15:44.652Z,11.88
2019-03-15T17:18:15.536Z,11.85
2019-03-15T17:20:46.692Z,11.78
2019-03-15T17:23:16.931Z,11.73
2019-03-15T17:25:48.184Z,11.69
2019-03-15T17:28:18.780Z,11.74
2019-03-15T17:30:48.981Z,11.80
2019-03-15T17:33:19.524Z,11.77
2019-03-15T17:35:50.076Z,11.82
2019-03-15T17:38:20.377Z,11.80
2019-03-15T17:40:50.583Z,11.83
2019-03-15T17:43:20.932Z,11.89
2019-03-15T17:45:51.563Z,11.92
2019-03-15T17:48:22.503Z,11.92
2019-03-15T17:50:53.099Z,11.94
2019-03-15T17:53:23.668Z,11.92
2019-03-15T17:55:54.069Z,11.88
2019-03-15T17:58:25.983Z,11.88
2019-03-15T18:00:56.688Z,11.88
2019-03-15T18:03:26.917Z,11.92
2019-03-15T18:05:57.542Z,11.93
2019-03-15T18:08:27.889Z,11.95
2019-03-15T18:10:58.145Z,11.87
2019-03-15T18:13:28.454Z,11.81
2019-03-15T18:15:59.029Z,11.77
2019-03-15T18:18:29.581Z,11.70
2019-03-15T18:21:00.732Z,11.65
2019-03-15T18:23:31.768Z,11.60
2019-03-15T18:26:02.314Z,11.58
2019-03-15T18:28:32.654Z,11.51
2019-03-15T18:31:03.455Z,11.48
2019-03-15T18:33:34.153Z,11.43
2019-03-15T18:36:04.330Z,11.43
2019-03-15T18:38:34.624Z,11.41
2019-03-15T18:41:05.136Z,11.44
2019-03-15T18:43:36.001Z,11.42
2019-03-15T18:46:06.578Z,11.46
2019-03-15T18:48:37.172Z,11.47
2019-03-15T18:51:08.549Z,11.52
2019-03-15T18:53:38.871Z,11.48
2019-03-15T18:56:09.098Z,11.48
2019-03-15T18:58:39.364Z,11.49
2019-03-15T19:01:10.320Z,11.54
2019-03-15T19:03:40.644Z,11.55
2019-03-15T19:06:10.981Z,11.57
2019-03-15T19:08:41.733Z,11.57
2019-03-15T19:11:12.049Z,11.56
2019-03-15T19:13:42.475Z,11.56
2019-03-15T19:16:19.885Z,11.58
2019-03-15T19:18:45.104Z,11.56
2019-03-15T19:21:17.697Z,11.60
2019-03-15T19:23:47.934Z,11.61
2019-03-15T19:26:18.230Z,11.61
2019-03-15T19:28:48.523Z,11.63
2019-03-15T19:31:18.786Z,11.64
2019-03-15T19:33:49.460Z,11.65
2019-03-15T19:36:19.673Z,11.65
2019-03-15T19:38:50.519Z,11.64
2019-03-15T19:41:20.892Z,11.64
2019-03-15T19:43:52.284Z,11.66
2019-03-15T19:46:22.556Z,11.69
2019-03-15T19:48:52.817Z,11.69
2019-03-15T19:51:23.373Z,11.64
2019-03-15T19:53:53.653Z,11.55
2019-03-15T19:56:25.074Z,11.58
2019-03-15T19:58:56.396Z,11.58
2019-03-15T20:01:28.945Z,11.58
2019-03-15T20:03:59.001Z,11.59
2019-03-15T20:06:29.375Z,11.65
2019-03-15T20:08:59.627Z,11.63
2019-03-15T20:11:29.877Z,11.65
2019-03-15T20:14:00.213Z,11.74
2019-03-15T20:16:30.657Z,11.74
2019-03-15T20:19:01.408Z,11.78
2019-03-15T20:21:32.163Z,11.75
2019-03-15T20:24:02.478Z,11.80
2019-03-15T20:26:32.795Z,11.75
2019-03-15T20:29:04.180Z,11.75
2019-03-15T20:31:34.668Z,11.71
2019-03-15T20:34:05.119Z,11.67
2019-03-15T20:36:35.428Z,11.66
2019-03-15T20:39:07.968Z,11.65
2019-03-15T20:41:38.448Z,11.64
2019-03-15T20:44:08.760Z,11.63
2019-03-15T20:46:39.318Z,11.65
2019-03-15T20:49:10.191Z,11.63
2019-03-15T20:51:40.900Z,11.60
2019-03-15T20:54:11.227Z,11.63
2019-03-15T20:56:41.647Z,11.61
2019-03-15T20:59:12.269Z,11.48
2019-03-15T21:01:42.910Z,11.44
2019-03-15T21:04:13.648Z,11.36
2019-03-15T21:06:43.952Z,11.28
2019-03-15T21:09:14.326Z,11.19
2019-03-15T21:11:44.596Z,11.16
2019-03-15T21:14:15.002Z,11.00
2019-03-15T21:16:45.573Z,10.88
2019-03-15T21:19:16.207Z,10.75
2019-03-15T21:21:46.516Z,10.69
2019-03-15T21:24:17.206Z,10.67
2019-03-15T21:26:47.498Z,10.64
2019-03-15T21:29:18.441Z,10.62
2019-03-15T21:31:48.735Z,10.61
2019-03-15T21:34:19.019Z,10.60
2019-03-15T21:36:49.387Z,10.58
2019-03-15T21:39:19.973Z,10.55
2019-03-15T21:41:50.503Z,10.52
2019-03-15T21:44:21.113Z,10.50
2019-03-15T21:46:51.425Z,10.49
2019-03-15T21:49:21.780Z,10.44
2019-03-15T21:51:52.028Z,10.49
2019-03-15T21:54:22.336Z,10.53
2019-03-15T21:56:52.590Z,10.50
2019-03-15T21:59:23.252Z,10.62
2019-03-15T22:01:53.916Z,10.64
2019-03-15T22:04:24.281Z,10.67
2019-03-15T22:06:54.611Z,10.67
2019-03-15T22:09:24.858Z,10.71
2019-03-15T22:11:55.157Z,10.66
2019-03-15T22:14:25.557Z,10.68
2019-03-15T22:16:56.112Z,10.68
2019-03-15T22:19:26.381Z,10.77
2019-03-15T22:21:57.706Z,10.84
2019-03-15T22:24:28.252Z,10.83
2019-03-15T22:26:58.537Z,10.83
2019-03-15T22:29:28.797Z,10.93
2019-03-15T22:31:59.509Z,10.88
2019-03-15T22:34:29.753Z,10.92
2019-03-15T22:37:00.046Z,10.88
2019-03-15T22:39:30.904Z,10.77
2019-03-15T22:42:01.286Z,10.75
2019-03-15T22:44:31.488Z,10.74
2019-03-15T22:47:02.153Z,10.73
2019-03-15T22:49:32.472Z,10.63
2019-03-15T22:52:02.773Z,10.62
2019-03-15T22:54:33.454Z,10.63
2019-03-15T22:57:03.692Z,10.63
2019-03-15T22:59:34.325Z,10.62
2019-03-15T23:02:05.783Z,10.63
2019-03-15T23:04:36.405Z,10.66
2019-03-15T23:07:07.727Z,10.66
2019-03-15T23:09:38.257Z,10.64
2019-03-15T23:12:08.630Z,10.62
2019-03-15T23:14:39.380Z,10.67
2019-03-15T23:17:09.925Z,10.70
2019-03-15T23:19:41.176Z,10.72
2019-03-15T23:22:12.065Z,10.68
2019-03-15T23:24:43.592Z,10.72
2019-03-15T23:27:13.833Z,10.75
2019-03-15T23:29:44.307Z,10.74
2019-03-15T23:32:15.616Z,10.78
2019-03-15T23:34:46.273Z,10.78
2019-03-15T23:37:16.505Z,10.83
2019-03-15T23:39:47.779Z,10.84
2019-03-15T23:42:18.026Z,10.85
2019-03-15T23:44:48.563Z,10.85
2019-03-15T23:47:18.882Z,10.82
2019-03-15T23:49:49.527Z,10.82
2019-03-15T23:52:20.220Z,10.83
2019-03-15T23:54:50.492Z,10.78
2019-03-15T23:57:20.832Z,10.85
2019-03-15T23:59:51.434Z,10.84
